Time;durP1;ratioP1;P1;durP2;ratioP2;P2;SDS_P1;SDS_P2;PMS_P1;PMS_P2;Temp;Humidity;BMP_temperature;BMP_pressure;BME280_temperature;BME280_humidity;BME280_pressure;Samples;Min_cycle;Max_cycle;Signal;HPM_P1;HPM_P2
2024/03/07 00:00:24;;;;;;;38.08;33.95;;;;;;;;;;5016492;28;20335;-83
2024/03/07 00:02:51;;;;;;;36.58;32.75;;;;;;;;;;5003216;28;20273;-83
2024/03/07 00:05:26;;;;;;;31.95;29.02;;;;;;;;;;4996920;28;20293;-87
2024/03/07 00:07:53;;;;;;;35.72;32.10;;;;;;;;;;4997223;28;20342;-83
2024/03/07 00:10:23;;;;;;;34.80;30.77;;;;;;;;;;4998131;28;20571;-83
2024/03/07 00:12:50;;;;;;;34.92;31.73;;;;;;;;;;4996499;28;20236;-85
2024/03/07 00:15:17;;;;;;;35.10;31.38;;;;;;;;;;4996183;28;20580;-83
2024/03/07 00:17:44;;;;;;;35.85;32.00;;;;;;;;;;4997412;28;20273;-84
2024/03/07 00:20:14;;;;;;;36.28;32.55;;;;;;;;;;5017093;28;20658;-84
2024/03/07 00:22:42;;;;;;;35.05;30.92;;;;;;;;;;5017722;28;20550;-83
2024/03/07 00:25:10;;;;;;;36.80;33.20;;;;;;;;;;5008717;28;20225;-83
2024/03/07 00:27:39;;;;;;;35.13;31.42;;;;;;;;;;4996664;28;20206;-83
2024/03/07 00:30:08;;;;;;;36.33;32.63;;;;;;;;;;5006729;28;20625;-83
2024/03/07 00:32:39;;;;;;;33.20;30.00;;;;;;;;;;5016066;28;20208;-84
2024/03/07 00:35:06;;;;;;;36.67;32.83;;;;;;;;;;5016687;28;20253;-85
2024/03/07 00:37:33;;;;;;;37.70;33.90;;;;;;;;;;5015951;28;20198;-83
2024/03/07 00:40:01;;;;;;;37.70;33.95;;;;;;;;;;5016476;28;20210;-85
2024/03/07 00:42:28;;;;;;;36.20;32.72;;;;;;;;;;5015807;28;20211;-83
2024/03/07 00:44:57;;;;;;;37.83;34.17;;;;;;;;;;5016066;28;20240;-84
2024/03/07 00:47:24;;;;;;;38.22;34.00;;;;;;;;;;5016015;28;20263;-83
2024/03/07 00:49:51;;;;;;;36.97;33.17;;;;;;;;;;5014175;28;20240;-84
2024/03/07 00:52:18;;;;;;;38.95;34.92;;;;;;;;;;4998151;28;20241;-83
2024/03/07 00:54:45;;;;;;;38.05;33.13;;;;;;;;;;4999921;28;20233;-85
2024/03/07 00:57:12;;;;;;;39.58;35.35;;;;;;;;;;5017236;28;20248;-85
2024/03/07 00:59:39;;;;;;;40.47;34.95;;;;;;;;;;5019219;28;20265;-84
2024/03/07 01:02:08;;;;;;;37.90;33.95;;;;;;;;;;5018760;28;20205;-84
2024/03/07 01:04:35;;;;;;;38.60;34.47;;;;;;;;;;5000852;28;20292;-83
2024/03/07 01:07:03;;;;;;;39.60;35.47;;;;;;;;;;4999431;28;20206;-84
2024/03/07 01:09:30;;;;;;;37.33;33.05;;;;;;;;;;5000030;28;20675;-83
2024/03/07 01:11:59;;;;;;;39.45;35.05;;;;;;;;;;5012396;28;20752;-84
2024/03/07 01:14:26;;;;;;;40.55;36.25;;;;;;;;;;5019014;28;20316;-83
2024/03/07 01:16:53;;;;;;;41.47;37.03;;;;;;;;;;5007590;28;20213;-84
2024/03/07 01:19:22;;;;;;;36.85;33.22;;;;;;;;;;5019245;28;20221;-83
2024/03/07 01:21:49;;;;;;;37.13;33.45;;;;;;;;;;5015335;28;20209;-85
2024/03/07 01:24:17;;;;;;;36.72;33.15;;;;;;;;;;4999584;28;20290;-84
2024/03/07 01:26:44;;;;;;;36.13;32.40;;;;;;;;;;4999535;28;20206;-83
2024/03/07 01:29:11;;;;;;;36.13;32.47;;;;;;;;;;4999395;28;20198;-83
2024/03/07 01:31:38;;;;;;;36.75;32.97;;;;;;;;;;5008935;28;20213;-84
2024/03/07 01:34:05;;;;;;;36.55;32.80;;;;;;;;;;5008818;28;20229;-85
2024/03/07 01:36:34;;;;;;;35.35;31.65;;;;;;;;;;5000015;28;20202;-83
2024/03/07 01:39:01;;;;;;;37.10;33.28;;;;;;;;;;4999340;28;20222;-84
2024/03/07 01:41:29;;;;;;;37.35;33.60;;;;;;;;;;5004703;28;20216;-84
2024/03/07 01:43:56;;;;;;;40.20;35.25;;;;;;;;;;5018696;28;20254;-83
2024/03/07 01:46:24;;;;;;;35.42;31.73;;;;;;;;;;5018708;28;20201;-84
2024/03/07 01:48:51;;;;;;;37.13;33.42;;;;;;;;;;5018812;28;20536;-85
2024/03/07 01:51:18;;;;;;;35.55;32.33;;;;;;;;;;5017048;28;20209;-84
2024/03/07 01:53:46;;;;;;;37.72;33.88;;;;;;;;;;4999363;28;20289;-85
2024/03/07 01:56:14;;;;;;;41.67;36.40;;;;;;;;;;4999633;28;20297;-83
2024/03/07 01:58:41;;;;;;;37.33;33.55;;;;;;;;;;4999443;28;20233;-84
2024/03/07 02:01:08;;;;;;;36.08;32.40;;;;;;;;;;5001672;28;20202;-84
2024/03/07 02:03:36;;;;;;;36.90;33.08;;;;;;;;;;5013802;28;20639;-84
2024/03/07 02:06:03;;;;;;;37.47;32.80;;;;;;;;;;4999158;28;20622;-83
2024/03/07 02:08:31;;;;;;;35.03;31.52;;;;;;;;;;4999557;28;20202;-85
2024/03/07 02:11:00;;;;;;;37.78;33.90;;;;;;;;;;4998302;28;20340;-83
2024/03/07 02:13:27;;;;;;;33.70;30.55;;;;;;;;;;5012766;28;20222;-83
2024/03/07 02:15:54;;;;;;;35.38;31.98;;;;;;;;;;5018608;28;20201;-83
2024/03/07 02:18:21;;;;;;;36.90;32.95;;;;;;;;;;5018945;28;20256;-83
2024/03/07 02:20:49;;;;;;;37.10;33.17;;;;;;;;;;5018381;28;20241;-84
2024/03/07 02:23:16;;;;;;;39.20;35.20;;;;;;;;;;5018057;28;20206;-84
2024/03/07 02:25:44;;;;;;;32.95;29.52;;;;;;;;;;5018305;28;20201;-84
2024/03/07 02:28:11;;;;;;;35.30;31.75;;;;;;;;;;5015061;28;20214;-84
2024/03/07 02:30:38;;;;;;;35.63;32.05;;;;;;;;;;4998358;28;20198;-84
2024/03/07 02:33:07;;;;;;;35.72;32.05;;;;;;;;;;5006950;28;20633;-85
2024/03/07 02:35:35;;;;;;;35.45;31.98;;;;;;;;;;5018472;28;20205;-83
2024/03/07 02:38:05;;;;;;;35.20;31.70;;;;;;;;;;5016406;28;20325;-83
2024/03/07 02:40:32;;;;;;;35.90;32.10;;;;;;;;;;4998540;28;20233;-85
2024/03/07 02:42:59;;;;;;;35.55;32.20;;;;;;;;;;5015100;28;20292;-86
2024/03/07 02:45:26;;;;;;;36.58;32.70;;;;;;;;;;4998613;28;20214;-83
2024/03/07 02:47:53;;;;;;;39.05;35.15;;;;;;;;;;5002275;28;20214;-83
2024/03/07 02:50:22;;;;;;;37.58;33.65;;;;;;;;;;4998613;28;20215;-85
2024/03/07 02:52:49;;;;;;;37.75;34.05;;;;;;;;;;5001878;28;20209;-84
2024/03/07 02:55:18;;;;;;;40.08;35.85;;;;;;;;;;5020672;28;20332;-86
2024/03/07 02:57:46;;;;;;;38.95;34.75;;;;;;;;;;5028685;28;20202;-84
2024/03/07 03:00:26;;;;;;;39.25;35.22;;;;;;;;;;5020793;28;20229;-85
2024/03/07 03:02:53;;;;;;;38.53;34.58;;;;;;;;;;5016637;28;20197;-84
2024/03/07 03:05:20;;;;;;;38.55;34.72;;;;;;;;;;5009221;28;20690;-85
2024/03/07 03:07:53;;;;;;;38.28;34.42;;;;;;;;;;5015481;28;20201;-83
2024/03/07 03:10:24;;;;;;;39.20;34.70;;;;;;;;;;4998022;28;20213;-85
2024/03/07 03:12:51;;;;;;;40.13;36.00;;;;;;;;;;4997517;28;20273;-84
2024/03/07 03:15:20;;;;;;;39.75;35.55;;;;;;;;;;5014600;28;20233;-83
2024/03/07 03:17:47;;;;;;;40.47;35.90;;;;;;;;;;5017207;28;20209;-83
2024/03/07 03:20:24;;;;;;;40.45;36.05;;;;;;;;;;5017054;28;20229;-83
2024/03/07 03:22:51;;;;;;;38.65;34.50;;;;;;;;;;5016685;28;20197;-85
2024/03/07 03:25:18;;;;;;;38.95;34.92;;;;;;;;;;5017570;28;20276;-83
2024/03/07 03:27:46;;;;;;;40.70;36.38;;;;;;;;;;5018384;28;20219;-83
2024/03/07 03:30:14;;;;;;;43.78;37.55;;;;;;;;;;4999837;28;20204;-85
2024/03/07 03:32:41;;;;;;;38.55;34.55;;;;;;;;;;4996066;28;20237;-85
2024/03/07 03:35:13;;;;;;;38.75;34.85;;;;;;;;;;5005318;28;20224;-85
2024/03/07 03:37:40;;;;;;;41.20;36.97;;;;;;;;;;4997597;28;20957;-83
2024/03/07 03:40:09;;;;;;;40.95;36.65;;;;;;;;;;4997322;28;20225;-84
2024/03/07 03:42:36;;;;;;;44.17;37.22;;;;;;;;;;5016080;28;20210;-83
2024/03/07 03:45:06;;;;;;;39.10;34.80;;;;;;;;;;5015926;28;20218;-84
2024/03/07 03:47:33;;;;;;;40.83;36.38;;;;;;;;;;5017807;28;20268;-84
2024/03/07 03:50:00;;;;;;;38.55;34.42;;;;;;;;;;5017569;28;20201;-85
2024/03/07 03:52:28;;;;;;;42.47;37.50;;;;;;;;;;5016800;28;20344;-84
2024/03/07 03:54:56;;;;;;;40.25;36.15;;;;;;;;;;5016565;28;20280;-84
2024/03/07 03:57:24;;;;;;;39.75;34.55;;;;;;;;;;5016658;28;20210;-83
2024/03/07 03:59:51;;;;;;;38.03;34.33;;;;;;;;;;5016403;28;20637;-83
2024/03/07 04:02:20;;;;;;;40.70;36.55;;;;;;;;;;5016566;28;20202;-83
2024/03/07 04:04:47;;;;;;;40.60;35.58;;;;;;;;;;5016892;28;20233;-83
2024/03/07 04:07:15;;;;;;;39.00;34.92;;;;;;;;;;5017109;28;20213;-83
2024/03/07 04:09:42;;;;;;;39.15;33.33;;;;;;;;;;5016827;28;20240;-84
2024/03/07 04:12:10;;;;;;;38.83;34.83;;;;;;;;;;5016069;28;20209;-83
2024/03/07 04:14:37;;;;;;;40.17;35.00;;;;;;;;;;5016953;28;20237;-83
2024/03/07 04:17:06;;;;;;;40.63;34.88;;;;;;;;;;5003237;28;20214;-85
2024/03/07 04:19:35;;;;;;;38.22;34.33;;;;;;;;;;4997116;28;20639;-83
2024/03/07 04:22:02;;;;;;;37.92;33.85;;;;;;;;;;4995488;28;20214;-85
2024/03/07 04:24:30;;;;;;;36.95;33.13;;;;;;;;;;4996501;28;20225;-84
2024/03/07 04:26:56;;;;;;;39.50;35.20;;;;;;;;;;5006174;28;20252;-85
2024/03/07 04:29:23;;;;;;;39.65;35.65;;;;;;;;;;5020880;28;20618;-83
2024/03/07 04:31:50;;;;;;;37.58;33.78;;;;;;;;;;5019982;28;20585;-83
2024/03/07 04:34:17;;;;;;;35.95;32.45;;;;;;;;;;5020226;28;20221;-83
2024/03/07 04:36:46;;;;;;;35.75;32.17;;;;;;;;;;5019413;28;20217;-84
2024/03/07 04:39:24;;;;;;;40.03;35.42;;;;;;;;;;5020059;28;20693;-85
2024/03/07 04:41:52;;;;;;;37.88;33.85;;;;;;;;;;5020280;28;20237;-83
2024/03/07 04:44:19;;;;;;;39.35;35.25;;;;;;;;;;5020439;28;20221;-84
2024/03/07 04:46:49;;;;;;;35.63;31.73;;;;;;;;;;5014141;28;20605;-83
2024/03/07 04:49:16;;;;;;;37.53;33.70;;;;;;;;;;5003039;28;20622;-85
2024/03/07 04:51:43;;;;;;;39.08;33.30;;;;;;;;;;4999913;28;20198;-85
2024/03/07 04:54:11;;;;;;;37.60;33.67;;;;;;;;;;5000147;28;20257;-83
2024/03/07 04:56:38;;;;;;;37.67;32.78;;;;;;;;;;5000465;28;20686;-85
2024/03/07 04:59:05;;;;;;;36.55;32.75;;;;;;;;;;5008316;28;20734;-85
2024/03/07 05:01:32;;;;;;;36.20;32.38;;;;;;;;;;5018283;28;20293;-84
2024/03/07 05:04:00;;;;;;;35.30;30.92;;;;;;;;;;5000375;28;20308;-84
2024/03/07 05:06:28;;;;;;;34.70;31.25;;;;;;;;;;5002794;28;20206;-85
2024/03/07 05:08:56;;;;;;;35.13;31.45;;;;;;;;;;5020160;28;20582;-83
2024/03/07 05:11:24;;;;;;;36.22;32.35;;;;;;;;;;5017163;28;20942;-85
2024/03/07 05:13:51;;;;;;;35.70;32.20;;;;;;;;;;5019458;28;20667;-84
2024/03/07 05:16:19;;;;;;;35.70;31.95;;;;;;;;;;5001518;28;20270;-84
2024/03/07 05:18:46;;;;;;;34.75;31.02;;;;;;;;;;5005327;28;20302;-84
2024/03/07 05:24:00;;;;;;;33.53;30.02;;;;;;;;;;5000248;28;20221;-85
2024/03/07 05:26:29;;;;;;;34.97;29.27;;;;;;;;;;5000115;28;20659;-84
2024/03/07 05:28:56;;;;;;;34.95;31.13;;;;;;;;;;5018638;28;20220;-84
2024/03/07 05:31:23;;;;;;;32.67;29.35;;;;;;;;;;5004786;28;20210;-85
2024/03/07 05:33:50;;;;;;;33.92;30.38;;;;;;;;;;5000276;28;20234;-85
2024/03/07 05:36:17;;;;;;;34.28;30.58;;;;;;;;;;5000586;28;20895;-85
2024/03/07 05:38:45;;;;;;;32.70;29.25;;;;;;;;;;4998717;28;20210;-85
2024/03/07 05:41:12;;;;;;;34.78;31.30;;;;;;;;;;4998655;28;20261;-85
2024/03/07 05:43:40;;;;;;;36.63;32.85;;;;;;;;;;4999280;28;20256;-85
2024/03/07 05:46:09;;;;;;;34.90;31.27;;;;;;;;;;4999606;28;20202;-85
2024/03/07 05:48:37;;;;;;;35.97;32.08;;;;;;;;;;5000016;28;20216;-84
2024/03/07 05:51:04;;;;;;;30.45;27.42;;;;;;;;;;4999036;28;20210;-85
2024/03/07 05:53:31;;;;;;;35.83;32.38;;;;;;;;;;4999042;28;20315;-84
2024/03/07 05:55:58;;;;;;;33.45;30.15;;;;;;;;;;4999732;28;20220;-84
2024/03/07 05:58:25;;;;;;;34.28;30.58;;;;;;;;;;5000059;28;20210;-84
2024/03/07 06:00:53;;;;;;;35.85;32.05;;;;;;;;;;4999133;28;20366;-85
2024/03/07 06:03:20;;;;;;;33.60;30.25;;;;;;;;;;4999476;28;20226;-85
2024/03/07 06:05:48;;;;;;;37.50;33.15;;;;;;;;;;5000029;28;20245;-83
2024/03/07 06:08:17;;;;;;;35.40;31.63;;;;;;;;;;5013765;28;20304;-83
2024/03/07 06:10:44;;;;;;;35.15;31.38;;;;;;;;;;5020879;28;20274;-87
2024/03/07 06:13:11;;;;;;;31.42;28.08;;;;;;;;;;5029577;28;20269;-85
2024/03/07 06:15:39;;;;;;;29.08;26.48;;;;;;;;;;5046040;28;20212;-85
2024/03/07 06:18:10;;;;;;;36.75;33.22;;;;;;;;;;5038336;28;20213;-88
2024/03/07 06:20:37;;;;;;;36.15;32.75;;;;;;;;;;5038255;28;20213;-89
2024/03/07 06:23:05;;;;;;;36.05;32.25;;;;;;;;;;5037853;28;20209;-86
2024/03/07 06:25:36;;;;;;;34.03;30.52;;;;;;;;;;5038482;28;20214;-85
2024/03/07 06:28:08;;;;;;;34.10;30.63;;;;;;;;;;5001890;28;20210;-85
2024/03/07 06:30:36;;;;;;;37.10;33.25;;;;;;;;;;5013013;28;20621;-83
2024/03/07 06:33:03;;;;;;;34.42;30.88;;;;;;;;;;5017789;28;20289;-85
2024/03/07 06:35:31;;;;;;;34.60;31.20;;;;;;;;;;5012980;28;20446;-83
2024/03/07 06:37:58;;;;;;;36.83;33.08;;;;;;;;;;5016449;28;20924;-83
2024/03/07 06:40:25;;;;;;;35.38;31.63;;;;;;;;;;5017209;28;20225;-83
2024/03/07 06:42:53;;;;;;;36.03;32.35;;;;;;;;;;5017505;28;20205;-84
2024/03/07 06:45:20;;;;;;;34.50;31.10;;;;;;;;;;5017026;28;20267;-85
2024/03/07 06:47:48;;;;;;;36.92;32.58;;;;;;;;;;5004925;28;20636;-85
2024/03/07 06:50:17;;;;;;;38.15;34.45;;;;;;;;;;4997426;28;20872;-84
2024/03/07 06:52:46;;;;;;;36.85;33.00;;;;;;;;;;4997753;28;20210;-84
2024/03/07 06:55:15;;;;;;;38.28;34.13;;;;;;;;;;4997809;28;20230;-84
2024/03/07 06:57:42;;;;;;;37.83;33.85;;;;;;;;;;4998228;28;20539;-85
2024/03/07 07:00:10;;;;;;;35.42;32.08;;;;;;;;;;4999573;28;20230;-79
2024/03/07 07:02:38;;;;;;;36.03;32.30;;;;;;;;;;5011258;28;20305;-78
2024/03/07 07:05:10;;;;;;;35.00;31.35;;;;;;;;;;4996479;28;20230;-80
2024/03/07 07:07:37;;;;;;;38.75;34.80;;;;;;;;;;5003057;28;20764;-84
2024/03/07 07:10:09;;;;;;;35.92;32.28;;;;;;;;;;5018028;28;20210;-84
2024/03/07 07:12:36;;;;;;;34.95;31.52;;;;;;;;;;5016761;28;20253;-79
2024/03/07 07:15:04;;;;;;;36.63;32.70;;;;;;;;;;4998752;28;20230;-81
2024/03/07 07:17:31;;;;;;;39.70;35.63;;;;;;;;;;5000483;28;20213;-79
2024/03/07 07:19:59;;;;;;;33.35;30.08;;;;;;;;;;5015837;28;20666;-81
2024/03/07 07:22:27;;;;;;;36.50;32.75;;;;;;;;;;5014981;28;20206;-81
2024/03/07 07:24:54;;;;;;;39.03;35.22;;;;;;;;;;5015154;28;20228;-81
2024/03/07 07:27:23;;;;;;;36.05;32.58;;;;;;;;;;5015640;28;20735;-81
2024/03/07 07:29:50;;;;;;;32.80;29.55;;;;;;;;;;5015186;28;20692;-80
2024/03/07 07:32:16;;;;;;;34.65;30.92;;;;;;;;;;5015052;28;20232;-80
2024/03/07 07:34:44;;;;;;;38.42;34.42;;;;;;;;;;5003722;28;20299;-79
2024/03/07 07:37:11;;;;;;;36.55;32.90;;;;;;;;;;5009055;28;20650;-81
2024/03/07 07:39:38;;;;;;;39.08;34.97;;;;;;;;;;5015302;28;20205;-79
2024/03/07 07:42:05;;;;;;;35.15;31.55;;;;;;;;;;5014286;28;20232;-80
2024/03/07 07:44:33;;;;;;;38.50;34.72;;;;;;;;;;5015099;28;20252;-81
2024/03/07 07:46:59;;;;;;;39.40;35.53;;;;;;;;;;5013815;28;20209;-78
2024/03/07 07:49:26;;;;;;;37.78;33.80;;;;;;;;;;5014695;28;20201;-78
2024/03/07 07:51:54;;;;;;;39.97;34.40;;;;;;;;;;5014225;28;20268;-79
2024/03/07 07:54:21;;;;;;;39.42;35.40;;;;;;;;;;5013488;28;20241;-79
2024/03/07 07:56:48;;;;;;;39.92;35.72;;;;;;;;;;5014432;28;20229;-78
2024/03/07 07:59:15;;;;;;;39.30;35.20;;;;;;;;;;5013855;28;20264;-79
2024/03/07 08:01:44;;;;;;;40.17;35.90;;;;;;;;;;5012514;28;20225;-80
2024/03/07 08:04:11;;;;;;;35.53;32.17;;;;;;;;;;5013298;28;20229;-77
2024/03/07 08:06:38;;;;;;;38.55;33.85;;;;;;;;;;5012988;28;20296;-79
2024/03/07 08:09:09;;;;;;;36.13;32.55;;;;;;;;;;5008919;28;20209;-80
2024/03/07 08:11:36;;;;;;;38.92;34.83;;;;;;;;;;5014994;28;20186;-87
2024/03/07 08:14:03;;;;;;;39.75;35.83;;;;;;;;;;5015875;28;20226;-80
2024/03/07 08:16:30;;;;;;;39.30;35.05;;;;;;;;;;5008978;28;20231;-81
2024/03/07 08:18:59;;;;;;;42.95;38.38;;;;;;;;;;5007508;28;20221;-80
2024/03/07 08:21:26;;;;;;;38.55;34.92;;;;;;;;;;5014422;28;20225;-80
2024/03/07 08:23:54;;;;;;;39.33;35.22;;;;;;;;;;5010766;28;20226;-81
2024/03/07 08:26:21;;;;;;;41.67;37.55;;;;;;;;;;4999279;28;20220;-81
2024/03/07 08:28:48;;;;;;;39.55;35.15;;;;;;;;;;5014667;28;20193;-81
2024/03/07 08:31:15;;;;;;;42.72;38.53;;;;;;;;;;5012809;28;20209;-78
2024/03/07 08:33:42;;;;;;;41.33;37.13;;;;;;;;;;5012001;28;20217;-77
2024/03/07 08:36:11;;;;;;;44.03;39.47;;;;;;;;;;5012389;28;20213;-77
2024/03/07 08:38:38;;;;;;;38.42;34.65;;;;;;;;;;5011800;28;20264;-77
2024/03/07 08:41:05;;;;;;;36.88;33.10;;;;;;;;;;5011930;28;20229;-78
2024/03/07 08:43:33;;;;;;;40.20;35.97;;;;;;;;;;5011649;28;20239;-78
2024/03/07 08:46:00;;;;;;;40.53;36.17;;;;;;;;;;5002957;28;20214;-77
2024/03/07 08:48:27;;;;;;;39.90;35.63;;;;;;;;;;5000632;28;20266;-79
2024/03/07 08:50:54;;;;;;;37.60;33.85;;;;;;;;;;5011439;28;20275;-78
2024/03/07 08:53:23;;;;;;;44.00;39.30;;;;;;;;;;5011624;28;20229;-77
2024/03/07 08:55:50;;;;;;;40.30;36.50;;;;;;;;;;5012391;28;20223;-75
2024/03/07 08:58:17;;;;;;;41.58;37.40;;;;;;;;;;5008794;28;20654;-80
2024/03/07 09:00:45;;;;;;;39.95;35.75;;;;;;;;;;5001733;28;20268;-79
2024/03/07 09:03:12;;;;;;;45.08;40.60;;;;;;;;;;4994167;28;20214;-79
2024/03/07 09:05:39;;;;;;;41.88;37.50;;;;;;;;;;5004534;28;20205;-80
2024/03/07 09:08:07;;;;;;;39.70;35.50;;;;;;;;;;5013316;28;20297;-80
2024/03/07 09:10:35;;;;;;;40.17;35.80;;;;;;;;;;5000351;28;20206;-82
2024/03/07 09:13:03;;;;;;;40.50;36.08;;;;;;;;;;5006434;28;20260;-81
2024/03/07 09:15:30;;;;;;;39.20;34.92;;;;;;;;;;4999516;28;20202;-85
2024/03/07 09:17:57;;;;;;;41.97;37.03;;;;;;;;;;5017352;28;20263;-84
2024/03/07 09:20:24;;;;;;;39.63;34.10;;;;;;;;;;5018150;28;20226;-85
2024/03/07 09:22:54;;;;;;;38.05;34.25;;;;;;;;;;5019391;28;20217;-85
2024/03/07 09:25:21;;;;;;;37.03;33.17;;;;;;;;;;5018684;28;20233;-86
2024/03/07 09:27:49;;;;;;;37.90;34.00;;;;;;;;;;5017981;28;20468;-85
2024/03/07 09:30:20;;;;;;;39.20;35.10;;;;;;;;;;5011157;28;20223;-87
2024/03/07 09:32:48;;;;;;;43.05;38.55;;;;;;;;;;5016754;28;20441;-86
2024/03/07 09:35:16;;;;;;;43.67;39.28;;;;;;;;;;4999148;28;20222;-81
2024/03/07 09:37:44;;;;;;;37.47;33.58;;;;;;;;;;5016392;28;20332;-80
2024/03/07 09:40:11;;;;;;;44.33;39.55;;;;;;;;;;5006983;28;20216;-81
2024/03/07 09:42:43;;;;;;;43.00;37.97;;;;;;;;;;5015763;28;20240;-80
2024/03/07 09:45:15;;;;;;;45.22;37.10;;;;;;;;;;5016329;28;20483;-78
2024/03/07 09:47:43;;;;;;;42.05;37.45;;;;;;;;;;5017344;28;20364;-81
2024/03/07 09:53:13;;;;;;;41.13;36.20;;;;;;;;;;5000734;28;20188;-82
2024/03/07 09:55:40;;;;;;;40.53;36.30;;;;;;;;;;5013524;28;20464;-81
2024/03/07 09:58:09;;;;;;;38.95;34.78;;;;;;;;;;5017158;28;20232;-79
2024/03/07 10:00:40;;;;;;;37.27;33.47;;;;;;;;;;5013832;28;20213;-81
2024/03/07 10:03:07;;;;;;;38.50;32.92;;;;;;;;;;4996528;28;20491;-82
2024/03/07 10:05:34;;;;;;;41.05;36.70;;;;;;;;;;4997345;28;20206;-80
2024/03/07 10:08:01;;;;;;;41.33;35.58;;;;;;;;;;4997036;28;20234;-79
2024/03/07 10:10:30;;;;;;;37.90;33.80;;;;;;;;;;4998174;28;20214;-80
2024/03/07 10:12:58;;;;;;;43.17;35.75;;;;;;;;;;4998266;28;20281;-80
2024/03/07 10:15:29;;;;;;;39.67;35.40;;;;;;;;;;4997670;28;20221;-80
2024/03/07 10:17:57;;;;;;;39.60;33.53;;;;;;;;;;4998909;28;20214;-81
2024/03/07 10:20:55;;;;;;;44.90;37.20;;;;;;;;;;5006847;28;20908;-81
2024/03/07 10:23:22;;;;;;;45.13;37.37;;;;;;;;;;5006596;28;20473;-79
2024/03/07 10:25:49;;;;;;;43.60;36.77;;;;;;;;;;5018397;28;20833;-81
2024/03/07 10:28:17;;;;;;;44.73;37.87;;;;;;;;;;5007103;28;20461;-79
2024/03/07 10:30:45;;;;;;;42.40;36.30;;;;;;;;;;5000979;28;20531;-81
2024/03/07 10:33:15;;;;;;;39.70;34.38;;;;;;;;;;5005429;28;20465;-79
2024/03/07 10:35:42;;;;;;;42.93;38.37;;;;;;;;;;4998682;28;20210;-80
2024/03/07 10:38:11;;;;;;;41.00;36.50;;;;;;;;;;5001077;28;20877;-81
2024/03/07 10:40:40;;;;;;;45.90;37.90;;;;;;;;;;5014384;28;20460;-81
2024/03/07 10:43:10;;;;;;;44.40;38.30;;;;;;;;;;5010686;28;20532;-82
2024/03/07 10:45:39;;;;;;;39.87;35.37;;;;;;;;;;5001837;28;20453;-81
2024/03/07 10:48:08;;;;;;;45.73;38.47;;;;;;;;;;5010930;28;20461;-82
2024/03/07 10:50:40;;;;;;;47.13;38.50;;;;;;;;;;5023088;28;20544;-79
2024/03/07 10:53:12;;;;;;;47.40;36.80;;;;;;;;;;5017550;28;20186;-78
2024/03/07 10:55:41;;;;;;;40.17;35.17;;;;;;;;;;5014873;28;20460;-78
2024/03/07 10:58:13;;;;;;;45.13;37.93;;;;;;;;;;5014468;28;20213;-77
2024/03/07 11:00:45;;;;;;;48.63;38.10;;;;;;;;;;5013895;28;20448;-78
2024/03/07 11:03:13;;;;;;;44.13;35.93;;;;;;;;;;5010621;28;20497;-79
2024/03/07 11:05:43;;;;;;;40.60;35.03;;;;;;;;;;4994354;28;20950;-78
2024/03/07 11:08:12;;;;;;;41.20;35.73;;;;;;;;;;4994464;28;20214;-78
2024/03/07 11:10:39;;;;;;;41.70;33.80;;;;;;;;;;4994531;28;20540;-79
2024/03/07 11:13:09;;;;;;;43.90;34.20;;;;;;;;;;5002153;28;20465;-77
2024/03/07 11:15:38;;;;;;;35.63;31.90;;;;;;;;;;4991367;28;20478;-79
2024/03/07 11:18:08;;;;;;;38.50;34.53;;;;;;;;;;4996529;28;20442;-82
2024/03/07 11:20:36;;;;;;;38.40;33.40;;;;;;;;;;4996304;28;20457;-82
2024/03/07 11:23:26;;;;;;;37.80;34.20;;;;;;;;;;5000797;28;20476;-81
2024/03/07 11:25:55;;;;;;;40.63;36.77;;;;;;;;;;4996165;28;20462;-80
2024/03/07 11:28:30;;;;;;;38.77;33.93;;;;;;;;;;4996181;28;20445;-83
2024/03/07 11:31:09;;;;;;;37.57;31.27;;;;;;;;;;4996615;28;20447;-80
2024/03/07 11:33:36;;;;;;;38.20;32.73;;;;;;;;;;4995980;28;20532;-81
2024/03/07 11:36:04;;;;;;;41.07;33.90;;;;;;;;;;4995841;28;20504;-91
2024/03/07 11:38:34;;;;;;;41.13;36.73;;;;;;;;;;4995290;28;20442;-82
2024/03/07 11:41:04;;;;;;;37.37;31.80;;;;;;;;;;4994749;28;20456;-81
2024/03/07 11:43:31;;;;;;;37.27;33.20;;;;;;;;;;4995712;28;20477;-80
2024/03/07 11:45:58;;;;;;;34.57;30.97;;;;;;;;;;4997006;28;20473;-84
2024/03/07 11:48:25;;;;;;;36.93;32.93;;;;;;;;;;4996094;28;20876;-81
2024/03/07 11:50:55;;;;;;;39.07;31.00;;;;;;;;;;4997489;28;20457;-87
2024/03/07 11:53:22;;;;;;;40.30;36.27;;;;;;;;;;4999072;28;20493;-89
2024/03/07 11:55:50;;;;;;;35.43;31.80;;;;;;;;;;5002285;28;20539;-87
2024/03/07 11:58:21;;;;;;;36.03;32.20;;;;;;;;;;5004491;28;20507;-84
2024/03/07 12:00:48;;;;;;;37.97;33.90;;;;;;;;;;5015904;28;20449;-83
2024/03/07 12:03:17;;;;;;;35.07;31.27;;;;;;;;;;5015152;28;20567;-84
2024/03/07 12:05:44;;;;;;;33.03;29.73;;;;;;;;;;5016640;28;20456;-85
2024/03/07 12:08:12;;;;;;;40.30;34.23;;;;;;;;;;5014980;28;20526;-84
2024/03/07 12:10:39;;;;;;;40.67;34.10;;;;;;;;;;5015728;28;20456;-83
2024/03/07 12:13:07;;;;;;;43.10;34.93;;;;;;;;;;5015700;28;20455;-82
2024/03/07 12:15:37;;;;;;;37.90;33.93;;;;;;;;;;5014521;28;20451;-80
2024/03/07 12:18:08;;;;;;;46.20;38.30;;;;;;;;;;5015255;28;20453;-80
2024/03/07 12:20:36;;;;;;;36.20;32.50;;;;;;;;;;5013800;28;20982;-79
2024/03/07 12:23:05;;;;;;;36.93;32.97;;;;;;;;;;5014376;28;20488;-79
2024/03/07 12:25:32;;;;;;;38.10;34.00;;;;;;;;;;5015100;28;20453;-79
2024/03/07 12:28:05;;;;;;;39.33;33.90;;;;;;;;;;5014584;28;20453;-80
2024/03/07 12:30:32;;;;;;;38.50;34.77;;;;;;;;;;5014165;28;20480;-81
2024/03/07 12:33:02;;;;;;;43.70;35.03;;;;;;;;;;5014096;28;20510;-79
2024/03/07 12:35:29;;;;;;;36.20;32.17;;;;;;;;;;5014364;28;20239;-79
2024/03/07 12:37:56;;;;;;;37.20;33.20;;;;;;;;;;5013675;28;20813;-79
2024/03/07 12:40:23;;;;;;;40.37;33.60;;;;;;;;;;5014243;28;20445;-81
2024/03/07 12:42:53;;;;;;;36.43;32.43;;;;;;;;;;5013135;28;20547;-80
2024/03/07 12:45:20;;;;;;;40.07;30.97;;;;;;;;;;4994641;28;20460;-79
2024/03/07 12:47:50;;;;;;;35.10;31.43;;;;;;;;;;4994201;28;20422;-80
2024/03/07 12:50:20;;;;;;;39.27;32.50;;;;;;;;;;4997894;28;20540;-79
2024/03/07 12:52:49;;;;;;;35.47;31.30;;;;;;;;;;4997373;28;20475;-79
2024/03/07 12:55:19;;;;;;;39.60;32.27;;;;;;;;;;4998276;28;20576;-78
2024/03/07 12:57:49;;;;;;;37.33;33.37;;;;;;;;;;4998498;28;20520;-80
2024/03/07 13:00:19;;;;;;;32.87;29.50;;;;;;;;;;5016733;28;20472;-79
2024/03/07 13:02:46;;;;;;;38.33;32.30;;;;;;;;;;5017210;28;20476;-78
2024/03/07 13:05:18;;;;;;;38.03;33.20;;;;;;;;;;5017933;28;20469;-80
2024/03/07 13:07:48;;;;;;;33.97;30.33;;;;;;;;;;5017908;28;21269;-79
2024/03/07 13:10:15;;;;;;;34.97;31.37;;;;;;;;;;5018391;28;20543;-79
2024/03/07 13:12:45;;;;;;;35.23;28.67;;;;;;;;;;5017224;28;20448;-80
2024/03/07 13:15:12;;;;;;;36.83;30.27;;;;;;;;;;5015084;28;21191;-76
2024/03/07 13:17:39;;;;;;;38.00;33.80;;;;;;;;;;5015137;28;20448;-77
2024/03/07 13:20:11;;;;;;;41.30;37.00;;;;;;;;;;5015003;28;20525;-77
2024/03/07 13:22:38;;;;;;;39.93;31.03;;;;;;;;;;5014148;28;20468;-77
2024/03/07 13:25:13;;;;;;;44.23;35.00;;;;;;;;;;5015010;28;20472;-76
2024/03/07 13:27:41;;;;;;;35.70;31.90;;;;;;;;;;5014582;28;20471;-76
2024/03/07 13:30:09;;;;;;;36.87;33.17;;;;;;;;;;5014426;28;20427;-77
2024/03/07 13:32:36;;;;;;;34.73;31.17;;;;;;;;;;5014144;28;20448;-76
2024/03/07 13:35:03;;;;;;;32.13;29.03;;;;;;;;;;5014015;28;20507;-76
2024/03/07 13:37:33;;;;;;;35.17;31.57;;;;;;;;;;5015410;28;20483;-83
2024/03/07 13:40:22;;;;;;;36.30;32.80;;;;;;;;;;5007459;28;21114;-84
2024/03/07 13:42:49;;;;;;;38.80;34.60;;;;;;;;;;5019409;28;20508;-85
2024/03/07 13:45:16;;;;;;;33.77;30.13;;;;;;;;;;5020241;28;20455;-86
2024/03/07 13:47:43;;;;;;;36.73;32.57;;;;;;;;;;5020855;28;20456;-86
2024/03/07 13:50:11;;;;;;;37.00;33.40;;;;;;;;;;5020001;28;20492;-85
2024/03/07 13:52:43;;;;;;;37.17;33.37;;;;;;;;;;5018726;28;20511;-85
2024/03/07 13:55:11;;;;;;;39.33;31.93;;;;;;;;;;5020525;28;20507;-86
2024/03/07 13:57:45;;;;;;;38.50;32.90;;;;;;;;;;5019812;28;20477;-81
2024/03/07 14:00:20;;;;;;;35.97;32.23;;;;;;;;;;5017539;28;20440;-79
2024/03/07 14:03:14;;;;;;;38.23;33.60;;;;;;;;;;5017470;28;20496;-78
2024/03/07 14:05:53;;;;;;;38.33;34.43;;;;;;;;;;4985726;28;20502;-84
2024/03/07 14:08:30;;;;;;;40.93;36.53;;;;;;;;;;5012392;28;20884;-81
2024/03/07 14:11:12;;;;;;;38.97;34.87;;;;;;;;;;4997090;28;21532;-81
2024/03/07 14:13:47;;;;;;;39.67;35.33;;;;;;;;;;4998775;28;20455;-81
2024/03/07 14:16:23;;;;;;;42.90;36.57;;;;;;;;;;5014025;28;20436;-83
2024/03/07 14:19:15;;;;;;;40.20;35.90;;;;;;;;;;5017801;28;20503;-82
2024/03/07 14:21:49;;;;;;;42.73;37.87;;;;;;;;;;5018225;28;20437;-84
2024/03/07 14:24:34;;;;;;;44.30;36.73;;;;;;;;;;5018339;28;20555;-83
2024/03/07 14:27:25;;;;;;;45.17;36.27;;;;;;;;;;5017769;28;20494;-82
2024/03/07 14:30:00;;;;;;;39.03;33.87;;;;;;;;;;5013026;28;20548;-82